createdAt,value
2022-11-07T00:00:26.050Z,100.00
2022-11-07T00:02:52.848Z,100.00
2022-11-07T00:05:19.443Z,100.00
2022-11-07T00:07:46.050Z,100.00
2022-11-07T00:10:12.631Z,100.00
2022-11-07T00:12:42.611Z,100.00
2022-11-07T00:15:09.630Z,100.00
2022-11-07T00:17:36.205Z,100.00
2022-11-07T00:20:02.888Z,100.00
2022-11-07T00:22:30.493Z,100.00
2022-11-07T00:24:57.119Z,100.00
2022-11-07T00:27:23.744Z,100.00
2022-11-07T00:29:50.394Z,100.00
2022-11-07T00:32:17.001Z,100.00
2022-11-07T00:34:43.568Z,100.00
2022-11-07T00:37:10.120Z,100.00
2022-11-07T00:39:36.780Z,100.00
2022-11-07T00:42:03.616Z,100.00
2022-11-07T00:44:30.189Z,100.00
2022-11-07T00:46:56.734Z,100.00
2022-11-07T00:49:23.303Z,100.00
2022-11-07T00:51:49.873Z,100.00
2022-11-07T00:54:17.525Z,100.00
2022-11-07T00:56:44.128Z,100.00
2022-11-07T00:59:10.784Z,100.00
2022-11-07T01:01:37.668Z,100.00
2022-11-07T01:04:20.107Z,100.00
2022-11-07T01:06:47.064Z,100.00
2022-11-07T01:09:17.195Z,100.00
2022-11-07T01:11:44.844Z,100.00
2022-11-07T01:14:13.935Z,100.00
2022-11-07T01:16:41.980Z,100.00
2022-11-07T01:19:09.439Z,100.00
2022-11-07T01:21:38.970Z,100.00
2022-11-07T01:24:07.982Z,100.00
2022-11-07T01:26:34.714Z,100.00
2022-11-07T01:29:01.433Z,100.00
2022-11-07T01:31:28.228Z,100.00
2022-11-07T01:33:55.000Z,100.00
2022-11-07T01:36:21.576Z,100.00
2022-11-07T01:38:49.235Z,100.00
2022-11-07T01:41:23.024Z,100.00
2022-11-07T01:44:10.219Z,100.00
2022-11-07T01:46:38.111Z,100.00
2022-11-07T01:49:09.602Z,100.00
2022-11-07T01:51:42.905Z,100.00
2022-11-07T01:54:11.392Z,100.00
2022-11-07T01:56:41.355Z,100.00
2022-11-07T01:59:11.033Z,100.00
2022-11-07T02:01:37.812Z,100.00
2022-11-07T02:04:05.669Z,100.00
2022-11-07T02:06:46.519Z,100.00
2022-11-07T02:09:14.066Z,100.00
2022-11-07T02:11:40.912Z,100.00
2022-11-07T02:14:07.709Z,100.00
2022-11-07T02:16:36.291Z,100.00
2022-11-07T02:19:08.508Z,100.00
2022-11-07T02:21:53.849Z,100.00
2022-11-07T02:24:33.244Z,100.00
2022-11-07T02:27:04.833Z,100.00
2022-11-07T02:29:33.522Z,100.00
2022-11-07T02:32:02.365Z,100.00
2022-11-07T02:34:29.007Z,100.00
2022-11-07T02:36:56.569Z,100.00
2022-11-07T02:39:23.411Z,100.00
2022-11-07T02:41:51.209Z,100.00
2022-11-07T02:44:19.131Z,100.00
2022-11-07T02:46:46.822Z,100.00
2022-11-07T02:49:13.417Z,100.00
2022-11-07T02:51:39.992Z,100.00
2022-11-07T02:54:06.631Z,100.00
2022-11-07T02:56:33.202Z,100.00
2022-11-07T02:58:59.834Z,100.00
2022-11-07T03:01:27.587Z,100.00
2022-11-07T03:03:54.464Z,100.00
2022-11-07T03:06:24.692Z,100.00
2022-11-07T03:08:51.939Z,100.00
2022-11-07T03:11:19.771Z,100.00
2022-11-07T03:13:48.416Z,100.00
2022-11-07T03:16:17.027Z,100.00
2022-11-07T03:18:44.152Z,100.00
2022-11-07T03:21:11.062Z,100.00
2022-11-07T03:23:37.905Z,100.00
2022-11-07T03:26:04.745Z,100.00
2022-11-07T03:28:31.970Z,100.00
2022-11-07T03:31:01.510Z,100.00
2022-11-07T03:33:29.356Z,100.00
2022-11-07T03:35:56.012Z,100.00
2022-11-07T03:38:22.914Z,100.00
2022-11-07T03:40:49.683Z,100.00
2022-11-07T03:43:16.649Z,100.00
2022-11-07T03:45:43.537Z,100.00
2022-11-07T03:48:10.087Z,100.00
2022-11-07T03:50:36.800Z,100.00
2022-11-07T03:53:03.413Z,100.00
2022-11-07T03:55:30.133Z,100.00
2022-11-07T03:58:00.525Z,100.00
2022-11-07T04:00:27.369Z,100.00
2022-11-07T04:02:54.170Z,100.00
2022-11-07T04:05:20.846Z,100.00
2022-11-07T04:07:47.413Z,100.00
2022-11-07T04:10:14.013Z,100.00
2022-11-07T04:12:55.846Z,100.00
2022-11-07T04:15:40.989Z,100.00
2022-11-07T04:18:07.609Z,100.00
2022-11-07T04:20:34.210Z,100.00
2022-11-07T04:23:00.811Z,100.00
2022-11-07T04:25:42.641Z,100.00
2022-11-07T04:28:09.250Z,100.00
2022-11-07T04:30:35.851Z,100.00
2022-11-07T04:33:03.247Z,100.00
2022-11-07T04:35:32.439Z,100.00
2022-11-07T04:37:59.818Z,100.00
2022-11-07T04:40:27.766Z,100.00
2022-11-07T04:42:55.263Z,100.00
2022-11-07T04:45:22.292Z,100.00
2022-11-07T04:47:49.309Z,100.00
2022-11-07T04:50:18.681Z,100.00
2022-11-07T04:52:46.805Z,100.00
2022-11-07T04:55:22.233Z,100.00
2022-11-07T04:57:51.429Z,100.00
2022-11-07T05:00:20.186Z,100.00
2022-11-07T05:02:47.920Z,100.00
2022-11-07T05:05:14.666Z,100.00
2022-11-07T05:07:41.932Z,100.00
2022-11-07T05:10:16.259Z,100.00
2022-11-07T05:12:42.835Z,100.00
2022-11-07T05:15:09.741Z,100.00
2022-11-07T05:17:36.316Z,100.00
2022-11-07T05:20:03.054Z,100.00
2022-11-07T05:22:45.044Z,100.00
2022-11-07T05:25:11.633Z,100.00
2022-11-07T05:27:38.439Z,100.00
2022-11-07T05:30:06.309Z,100.00
2022-11-07T05:32:38.141Z,100.00
2022-11-07T05:35:05.695Z,100.00
2022-11-07T05:37:32.338Z,100.00
2022-11-07T05:39:58.929Z,100.00
2022-11-07T05:42:25.521Z,100.00
2022-11-07T05:44:52.110Z,100.00
2022-11-07T05:47:18.683Z,100.00
2022-11-07T05:49:45.278Z,100.00
2022-11-07T05:52:11.856Z,100.00
2022-11-07T05:54:38.712Z,100.00
2022-11-07T05:57:05.255Z,100.00
2022-11-07T05:59:31.830Z,100.00
2022-11-07T06:01:58.476Z,100.00
2022-11-07T06:04:25.133Z,100.00
2022-11-07T06:06:51.742Z,100.00
2022-11-07T06:09:18.320Z,100.00
2022-11-07T06:11:45.355Z,100.00
2022-11-07T06:14:11.918Z,100.00
2022-11-07T06:16:38.503Z,100.00
2022-11-07T06:19:05.334Z,100.00
2022-11-07T06:21:32.272Z,100.00
2022-11-07T06:23:59.355Z,100.00
2022-11-07T06:26:26.685Z,100.00
2022-11-07T06:28:56.819Z,100.00
2022-11-07T06:31:23.544Z,100.00
2022-11-07T06:33:51.343Z,100.00
2022-11-07T06:36:18.230Z,100.00
2022-11-07T06:38:44.832Z,100.00
2022-11-07T06:41:14.050Z,100.00
2022-11-07T06:43:40.838Z,100.00
2022-11-07T06:46:10.478Z,100.00
2022-11-07T06:48:37.080Z,100.00
2022-11-07T06:51:05.961Z,100.00
2022-11-07T06:53:33.218Z,100.00
2022-11-07T06:56:00.783Z,100.00
2022-11-07T06:58:27.691Z,100.00
2022-11-07T07:00:58.534Z,100.00
2022-11-07T07:03:25.250Z,100.00
2022-11-07T07:05:51.847Z,100.00
2022-11-07T07:08:18.528Z,100.00
2022-11-07T07:10:46.043Z,100.00
2022-11-07T07:13:14.585Z,100.00
2022-11-07T07:15:50.758Z,100.00
2022-11-07T07:18:18.996Z,100.00
2022-11-07T07:20:46.713Z,100.00
2022-11-07T07:23:13.293Z,100.00
2022-11-07T07:25:39.875Z,100.00
2022-11-07T07:28:06.433Z,100.00
2022-11-07T07:30:33.073Z,100.00
2022-11-07T07:32:59.719Z,100.00
2022-11-07T07:35:26.511Z,100.00
2022-11-07T07:37:53.302Z,100.00
2022-11-07T07:40:20.836Z,100.00
2022-11-07T07:42:47.854Z,100.00
2022-11-07T07:45:16.002Z,100.00
2022-11-07T07:47:42.848Z,100.00
2022-11-07T07:50:12.019Z,100.00
2022-11-07T07:52:38.830Z,100.00
2022-11-07T07:55:07.981Z,100.00
2022-11-07T07:57:39.616Z,100.00
2022-11-07T08:00:11.709Z,100.00
2022-11-07T08:02:39.025Z,100.00
2022-11-07T08:05:06.217Z,100.00
2022-11-07T08:07:32.800Z,100.00
2022-11-07T08:10:05.418Z,100.00
2022-11-07T08:12:46.480Z,100.00
2022-11-07T08:15:14.200Z,100.00
2022-11-07T08:17:44.909Z,100.00
2022-11-07T08:20:14.678Z,100.00
2022-11-07T08:22:41.614Z,100.00
2022-11-07T08:25:10.374Z,100.00
2022-11-07T08:27:37.656Z,100.00
2022-11-07T08:30:07.124Z,100.00
2022-11-07T08:32:34.403Z,100.00
2022-11-07T08:35:01.108Z,100.00
2022-11-07T08:37:27.660Z,100.00
2022-11-07T08:39:54.235Z,100.00
2022-11-07T08:42:20.859Z,100.00
2022-11-07T08:44:47.470Z,100.00
2022-11-07T08:47:14.077Z,100.00
2022-11-07T08:49:40.662Z,100.00
2022-11-07T08:52:07.263Z,100.00
2022-11-07T08:54:33.913Z,99.91
2022-11-07T08:57:01.276Z,99.09
2022-11-07T08:59:29.298Z,98.38
2022-11-07T09:02:39.077Z,99.29
2022-11-07T09:04:42.949Z,98.38
2022-11-07T09:07:09.650Z,95.99
2022-11-07T09:09:36.307Z,95.32
2022-11-07T09:12:02.948Z,94.66
2022-11-07T09:14:29.567Z,94.90
2022-11-07T09:16:56.129Z,94.94
2022-11-07T09:19:22.728Z,93.73
2022-11-07T09:21:49.342Z,93.61
2022-11-07T09:24:15.926Z,92.82
2022-11-07T09:26:42.638Z,91.34
2022-11-07T09:29:09.255Z,89.09
2022-11-07T09:31:36.283Z,88.40
2022-11-07T09:34:02.886Z,86.30
2022-11-07T09:36:29.529Z,85.82
2022-11-07T09:38:57.240Z,83.27
2022-11-07T09:41:39.212Z,82.98
2022-11-07T09:44:32.352Z,82.46
2022-11-07T09:47:14.667Z,80.59
2022-11-07T09:49:46.452Z,78.17
2022-11-07T09:52:16.968Z,77.46
2022-11-07T09:54:48.900Z,77.33
2022-11-07T09:57:17.589Z,77.21
2022-11-07T09:59:53.153Z,75.89
2022-11-07T10:02:24.005Z,76.71
2022-11-07T10:04:56.843Z,73.81
2022-11-07T10:07:53.872Z,73.90
2022-11-07T10:10:46.643Z,75.09
2022-11-07T10:13:28.471Z,73.48
2022-11-07T10:16:06.379Z,72.02
2022-11-07T10:18:52.883Z,72.53
2022-11-07T10:21:41.526Z,74.76
2022-11-07T10:24:27.078Z,70.89
2022-11-07T10:26:53.950Z,71.24
2022-11-07T10:29:24.339Z,70.69
2022-11-07T10:32:13.379Z,69.11
2022-11-07T10:34:50.242Z,68.89
2022-11-07T10:37:21.127Z,71.81
2022-11-07T10:39:47.757Z,68.14
2022-11-07T10:42:19.882Z,71.08
2022-11-07T10:44:47.817Z,72.14
2022-11-07T10:47:21.581Z,71.13
2022-11-07T10:50:16.892Z,69.39
2022-11-07T10:52:52.715Z,68.47
2022-11-07T10:55:19.447Z,70.08
2022-11-07T10:57:50.630Z,72.33
2022-11-07T11:00:23.413Z,74.20
2022-11-07T11:02:51.805Z,73.99
2022-11-07T11:05:40.792Z,73.08
2022-11-07T11:08:20.121Z,73.03
2022-11-07T11:10:47.905Z,74.19
2022-11-07T11:13:32.317Z,72.65
2022-11-07T11:16:07.987Z,74.37
2022-11-07T11:18:34.566Z,74.60
2022-11-07T11:21:03.179Z,74.01
2022-11-07T11:23:35.376Z,74.10
2022-11-07T11:26:07.428Z,72.28
2022-11-07T11:28:38.213Z,74.85
2022-11-07T11:31:14.283Z,76.17
2022-11-07T11:33:47.328Z,77.82
2022-11-07T11:36:19.300Z,77.22
2022-11-07T11:38:54.827Z,74.32
2022-11-07T11:41:31.657Z,72.49
2022-11-07T11:44:04.862Z,72.80
2022-11-07T11:46:43.044Z,74.28
2022-11-07T11:49:17.850Z,76.07
2022-11-07T11:51:53.498Z,73.92
2022-11-07T11:54:20.219Z,73.97
2022-11-07T11:56:59.624Z,73.58
2022-11-07T11:59:51.151Z,74.37
2022-11-07T12:02:45.405Z,74.06
2022-11-07T12:05:47.414Z,74.50
2022-11-07T12:08:30.589Z,72.93
2022-11-07T12:11:13.390Z,74.50
2022-11-07T12:14:00.954Z,74.17
2022-11-07T12:16:41.110Z,73.61
2022-11-07T12:19:36.959Z,74.28
2022-11-07T12:22:16.824Z,72.89
2022-11-07T12:24:44.365Z,75.17
2022-11-07T12:27:34.312Z,74.57
2022-11-07T12:30:22.166Z,75.43
2022-11-07T12:33:23.969Z,72.64
2022-11-07T12:35:54.670Z,73.38
2022-11-07T12:38:37.729Z,74.02
2022-11-07T12:41:28.476Z,72.46
2022-11-07T12:43:55.022Z,72.48
2022-11-07T12:46:46.020Z,73.40
2022-11-07T12:49:27.882Z,74.50
2022-11-07T12:52:09.683Z,75.14
2022-11-07T12:54:56.621Z,75.96
2022-11-07T12:57:27.241Z,73.47
2022-11-07T13:00:01.477Z,74.14
2022-11-07T13:02:36.923Z,74.57
2022-11-07T13:05:17.202Z,73.62
2022-11-07T13:07:53.521Z,74.06
2022-11-07T13:10:28.601Z,71.62
2022-11-07T13:13:16.173Z,71.77
2022-11-07T13:16:13.655Z,71.49
2022-11-07T13:18:30.040Z,70.87
2022-11-07T13:21:04.022Z,72.96
2022-11-07T13:23:30.965Z,71.21
2022-11-07T13:26:00.016Z,72.45
2022-11-07T13:28:43.021Z,73.74
2022-11-07T13:31:31.897Z,76.63
2022-11-07T13:34:24.818Z,72.42
2022-11-07T13:36:57.092Z,72.13
2022-11-07T13:39:24.785Z,72.00
2022-11-07T13:41:52.948Z,72.52
2022-11-07T13:44:26.065Z,71.19
2022-11-07T13:46:56.637Z,73.74
2022-11-07T13:49:43.989Z,74.55
2022-11-07T13:52:20.622Z,70.29
2022-11-07T13:54:51.262Z,71.00
2022-11-07T13:57:27.673Z,70.85
2022-11-07T14:00:14.536Z,71.74
2022-11-07T14:02:54.685Z,70.66
2022-11-07T14:05:24.117Z,70.88
2022-11-07T14:07:55.657Z,70.41
2022-11-07T14:10:29.648Z,69.31
2022-11-07T14:13:07.339Z,69.49
2022-11-07T14:15:36.659Z,67.59
2022-11-07T14:18:04.463Z,66.97
2022-11-07T14:20:31.135Z,68.02
2022-11-07T14:23:00.739Z,65.52
2022-11-07T14:25:32.037Z,65.25
2022-11-07T14:27:59.636Z,68.86
2022-11-07T14:30:28.530Z,68.23
2022-11-07T14:33:00.029Z,68.62
2022-11-07T14:35:33.667Z,69.20
2022-11-07T14:38:11.143Z,68.73
2022-11-07T14:40:38.328Z,70.86
2022-11-07T14:43:05.152Z,73.85
2022-11-07T14:46:10.287Z,77.91
2022-11-07T14:48:28.318Z,78.40
2022-11-07T14:50:55.891Z,77.96
2022-11-07T14:53:28.150Z,77.15
2022-11-07T14:55:58.927Z,76.05
2022-11-07T14:58:28.438Z,73.93
2022-11-07T15:00:59.778Z,73.11
2022-11-07T15:03:32.822Z,75.60
2022-11-07T15:05:59.603Z,77.08
2022-11-07T15:08:28.218Z,79.32
2022-11-07T15:11:25.524Z,80.50
2022-11-07T15:13:53.123Z,81.86
2022-11-07T15:16:22.702Z,83.54
2022-11-07T15:18:58.700Z,84.11
2022-11-07T15:21:29.554Z,84.64
2022-11-07T15:23:56.900Z,86.04
2022-11-07T15:26:30.307Z,86.85
2022-11-07T15:29:14.281Z,86.92
2022-11-07T15:31:48.479Z,87.75
2022-11-07T15:34:33.682Z,88.15
2022-11-07T15:37:17.461Z,88.14
2022-11-07T15:39:44.183Z,88.18
2022-11-07T15:42:10.800Z,90.07
2022-11-07T15:44:38.429Z,91.41
2022-11-07T15:47:06.052Z,92.22
2022-11-07T15:49:34.108Z,92.41
2022-11-07T15:52:01.632Z,92.03
2022-11-07T15:54:36.057Z,92.49
2022-11-07T15:57:05.828Z,92.83
2022-11-07T15:59:35.665Z,92.38
2022-11-07T16:02:03.084Z,93.37
2022-11-07T16:04:39.639Z,93.62
2022-11-07T16:07:15.001Z,94.06
2022-11-07T16:09:42.633Z,94.52
2022-11-07T16:12:13.034Z,95.05
2022-11-07T16:14:44.427Z,95.25
2022-11-07T16:17:15.099Z,95.80
2022-11-07T16:19:44.955Z,96.34
2022-11-07T16:22:13.712Z,96.77
2022-11-07T16:24:40.274Z,96.91
2022-11-07T16:27:07.281Z,96.45
2022-11-07T16:29:33.920Z,96.78
2022-11-07T16:32:00.641Z,97.17
2022-11-07T16:34:27.190Z,96.35
2022-11-07T16:36:53.829Z,96.69
2022-11-07T16:39:22.621Z,97.59
2022-11-07T16:41:50.388Z,97.67
2022-11-07T16:44:21.583Z,98.61
2022-11-07T16:46:51.428Z,98.87
2022-11-07T16:49:30.776Z,98.59
2022-11-07T16:51:58.171Z,98.60
2022-11-07T16:54:25.081Z,98.46
2022-11-07T16:56:52.926Z,99.32
2022-11-07T16:59:22.362Z,99.08
2022-11-07T17:01:51.119Z,99.03
2022-11-07T17:04:17.851Z,99.31
2022-11-07T17:06:47.576Z,99.07
2022-11-07T17:09:16.857Z,98.46
2022-11-07T17:11:44.671Z,99.36
2022-11-07T17:14:11.782Z,100.00
2022-11-07T17:16:42.144Z,100.00
2022-11-07T17:19:12.818Z,100.00
2022-11-07T17:21:46.163Z,100.00
2022-11-07T17:24:13.943Z,99.93
2022-11-07T17:26:40.706Z,100.00
2022-11-07T17:29:10.850Z,100.00
2022-11-07T17:31:37.523Z,100.00
2022-11-07T17:34:04.232Z,100.00
2022-11-07T17:36:37.139Z,100.00
2022-11-07T17:39:10.953Z,100.00
2022-11-07T17:41:39.390Z,100.00
2022-11-07T17:44:06.315Z,100.00
2022-11-07T17:46:34.511Z,100.00
2022-11-07T17:49:04.039Z,100.00
2022-11-07T17:51:30.993Z,100.00
2022-11-07T17:53:58.251Z,100.00
2022-11-07T17:56:27.174Z,100.00
2022-11-07T17:58:57.299Z,100.00
2022-11-07T18:01:26.500Z,100.00
2022-11-07T18:03:54.701Z,100.00
2022-11-07T18:06:23.623Z,100.00
2022-11-07T18:08:52.873Z,100.00
2022-11-07T18:11:22.573Z,100.00
2022-11-07T18:13:51.134Z,100.00
2022-11-07T18:16:21.353Z,100.00
2022-11-07T18:18:48.427Z,100.00
2022-11-07T18:21:15.407Z,100.00
2022-11-07T18:23:43.015Z,100.00
2022-11-07T18:26:17.370Z,100.00
2022-11-07T18:28:44.494Z,100.00
2022-11-07T18:31:14.064Z,100.00
2022-11-07T18:33:41.672Z,100.00
2022-11-07T18:36:11.289Z,100.00
2022-11-07T18:38:38.531Z,100.00
2022-11-07T18:41:09.232Z,100.00
2022-11-07T18:43:36.882Z,100.00
2022-11-07T18:46:07.412Z,100.00
2022-11-07T18:48:34.783Z,100.00
2022-11-07T18:51:01.680Z,100.00
2022-11-07T18:53:29.784Z,100.00
2022-11-07T18:56:07.346Z,100.00
2022-11-07T18:58:36.486Z,100.00
2022-11-07T19:01:06.908Z,100.00
2022-11-07T19:03:35.042Z,100.00
2022-11-07T19:06:05.145Z,100.00
2022-11-07T19:08:33.932Z,100.00
2022-11-07T19:11:02.494Z,100.00
2022-11-07T19:13:29.471Z,100.00
2022-11-07T19:15:56.214Z,100.00
2022-11-07T19:18:22.843Z,100.00
2022-11-07T19:20:54.129Z,100.00
2022-11-07T19:23:20.873Z,100.00
2022-11-07T19:25:48.208Z,100.00
2022-11-07T19:28:15.603Z,100.00
2022-11-07T19:30:42.648Z,100.00
2022-11-07T19:33:09.788Z,100.00
2022-11-07T19:35:38.190Z,100.00
2022-11-07T19:38:09.025Z,100.00
2022-11-07T19:40:37.050Z,100.00
2022-11-07T19:43:04.815Z,100.00
2022-11-07T19:45:41.233Z,100.00
2022-11-07T19:48:08.355Z,100.00
2022-11-07T19:50:34.984Z,100.00
2022-11-07T19:53:01.623Z,100.00
2022-11-07T19:55:28.222Z,100.00
2022-11-07T19:57:54.902Z,100.00
2022-11-07T20:00:23.884Z,100.00
2022-11-07T20:02:50.745Z,100.00
2022-11-07T20:05:24.706Z,100.00
2022-11-07T20:07:55.297Z,100.00
2022-11-07T20:10:24.272Z,100.00
2022-11-07T20:12:51.219Z,100.00
2022-11-07T20:15:18.061Z,100.00
2022-11-07T20:17:44.701Z,100.00
2022-11-07T20:20:15.457Z,100.00
2022-11-07T20:22:46.535Z,100.00
2022-11-07T20:25:14.835Z,100.00
2022-11-07T20:27:41.916Z,100.00
2022-11-07T20:30:09.514Z,100.00
2022-11-07T20:32:36.170Z,100.00
2022-11-07T20:35:02.958Z,100.00
2022-11-07T20:37:29.581Z,100.00
2022-11-07T20:39:56.198Z,100.00
2022-11-07T20:42:23.022Z,100.00
2022-11-07T20:44:50.667Z,100.00
2022-11-07T20:47:17.416Z,100.00
2022-11-07T20:49:44.052Z,100.00
2022-11-07T20:52:10.819Z,100.00
2022-11-07T20:54:37.815Z,100.00
2022-11-07T20:57:05.251Z,100.00
2022-11-07T20:59:32.587Z,100.00
2022-11-07T21:02:03.412Z,100.00
2022-11-07T21:04:44.499Z,100.00
2022-11-07T21:07:19.993Z,100.00
2022-11-07T21:09:46.905Z,100.00
2022-11-07T21:12:13.667Z,100.00
2022-11-07T21:14:42.161Z,100.00
2022-11-07T21:17:09.703Z,100.00
2022-11-07T21:19:37.989Z,100.00
2022-11-07T21:22:06.243Z,100.00
2022-11-07T21:24:32.887Z,100.00
2022-11-07T21:26:59.512Z,100.00
2022-11-07T21:29:29.477Z,100.00
2022-11-07T21:31:57.368Z,100.00
2022-11-07T21:34:24.224Z,100.00
2022-11-07T21:36:50.854Z,100.00
2022-11-07T21:39:17.906Z,100.00
2022-11-07T21:41:44.837Z,100.00
2022-11-07T21:44:12.304Z,100.00
2022-11-07T21:46:41.222Z,100.00
2022-11-07T21:49:08.322Z,100.00
2022-11-07T21:51:35.665Z,100.00
2022-11-07T21:54:03.838Z,100.00
2022-11-07T21:56:33.605Z,100.00
2022-11-07T21:59:03.164Z,100.00
2022-11-07T22:01:34.849Z,100.00
2022-11-07T22:04:08.469Z,100.00
2022-11-07T22:06:37.895Z,100.00
2022-11-07T22:09:06.885Z,100.00
2022-11-07T22:11:33.568Z,100.00
2022-11-07T22:14:00.205Z,100.00
2022-11-07T22:16:27.341Z,100.00
2022-11-07T22:18:54.016Z,100.00
2022-11-07T22:21:23.223Z,100.00
2022-11-07T22:23:50.669Z,100.00
2022-11-07T22:26:19.544Z,100.00
2022-11-07T22:28:46.762Z,100.00
2022-11-07T22:31:16.968Z,100.00
2022-11-07T22:33:43.864Z,100.00
2022-11-07T22:36:12.040Z,100.00
2022-11-07T22:38:40.049Z,100.00
2022-11-07T22:41:09.267Z,100.00
2022-11-07T22:43:35.822Z,100.00
2022-11-07T22:46:05.765Z,100.00
2022-11-07T22:48:32.532Z,100.00
2022-11-07T22:51:15.872Z,100.00
2022-11-07T22:53:42.485Z,100.00
2022-11-07T22:56:13.617Z,100.00
2022-11-07T22:58:40.858Z,100.00
2022-11-07T23:01:17.982Z,100.00
2022-11-07T23:03:45.171Z,100.00
2022-11-07T23:06:11.857Z,100.00
2022-11-07T23:08:39.068Z,100.00
2022-11-07T23:14:02.007Z,100.00
2022-11-07T23:16:32.927Z,100.00
2022-11-07T23:19:02.165Z,100.00
2022-11-07T23:21:29.429Z,100.00
2022-11-07T23:23:57.703Z,100.00
2022-11-07T23:26:25.579Z,100.00
2022-11-07T23:28:52.283Z,100.00
2022-11-07T23:31:20.169Z,100.00
2022-11-07T23:33:46.912Z,100.00
2022-11-07T23:36:16.014Z,100.00
2022-11-07T23:38:44.164Z,100.00
2022-11-07T23:41:13.963Z,100.00
2022-11-07T23:43:40.877Z,100.00
2022-11-07T23:46:23.518Z,100.00
2022-11-07T23:49:09.411Z,100.00
2022-11-07T23:51:40.053Z,100.00
2022-11-07T23:54:22.530Z,100.00
2022-11-07T23:56:49.077Z,100.00
2022-11-07T23:59:31.010Z,100.00
